sensor_id;sensor_type;location;lat;lon;timestamp;pressure;altitude;pressure_sealevel;temperature;humidity
38267;BME280;24063;51.794;19.578;2022-08-21T00:00:16;98142.52;;;18.59;100.00
38267;BME280;24063;51.794;19.578;2022-08-21T00:01:36;98138.74;;;18.58;100.00
38267;BME280;24063;51.794;19.578;2022-08-21T00:02:45;98138.52;;;18.58;100.00
38267;BME280;24063;51.794;19.578;2022-08-21T00:03:47;98137.39;;;18.58;100.00
38267;BME280;24063;51.794;19.578;2022-08-21T00:04:50;98133.95;;;18.58;100.00
38267;BME280;24063;51.794;19.578;2022-08-21T00:05:58;98132.98;;;18.57;100.00
38267;BME280;24063;51.794;19.578;2022-08-21T00:07:00;98133.05;;;18.57;100.00
38267;BME280;24063;51.794;19.578;2022-08-21T00:08:03;98128.73;;;18.56;100.00
38267;BME280;24063;51.794;19.578;2022-08-21T00:09:06;98130.42;;;18.55;100.00
38267;BME280;24063;51.794;19.578;2022-08-21T00:10:10;98128.14;;;18.54;100.00
38267;BME280;24063;51.794;19.578;2022-08-21T00:11:13;98125.92;;;18.53;100.00
38267;BME280;24063;51.794;19.578;2022-08-21T00:12:16;98128.30;;;18.53;100.00
38267;BME280;24063;51.794;19.578;2022-08-21T00:13:19;98127.35;;;18.52;100.00
38267;BME280;24063;51.794;19.578;2022-08-21T00:14:21;98125.70;;;18.52;100.00
38267;BME280;24063;51.794;19.578;2022-08-21T00:15:26;98124.98;;;18.51;100.00
38267;BME280;24063;51.794;19.578;2022-08-21T00:16:28;98127.08;;;18.51;100.00
38267;BME280;24063;51.794;19.578;2022-08-21T00:17:30;98132.64;;;18.51;100.00
38267;BME280;24063;51.794;19.578;2022-08-21T00:18:32;98133.20;;;18.52;100.00
38267;BME280;24063;51.794;19.578;2022-08-21T00:19:34;98131.18;;;18.52;100.00
38267;BME280;24063;51.794;19.578;2022-08-21T00:20:37;98133.88;;;18.53;100.00
38267;BME280;24063;51.794;19.578;2022-08-21T00:21:39;98132.39;;;18.53;100.00
38267;BME280;24063;51.794;19.578;2022-08-21T00:22:45;98134.60;;;18.54;100.00
38267;BME280;24063;51.794;19.578;2022-08-21T00:23:47;98131.07;;;18.53;100.00
38267;BME280;24063;51.794;19.578;2022-08-21T00:24:49;98131.15;;;18.54;100.00
38267;BME280;24063;51.794;19.578;2022-08-21T00:25:51;98127.33;;;18.54;100.00
38267;BME280;24063;51.794;19.578;2022-08-21T00:26:53;98128.15;;;18.55;100.00
38267;BME280;24063;51.794;19.578;2022-08-21T00:27:55;98126.39;;;18.56;100.00
38267;BME280;24063;51.794;19.578;2022-08-21T00:28:57;98126.40;;;18.56;100.00
38267;BME280;24063;51.794;19.578;2022-08-21T00:29:59;98126.70;;;18.56;100.00
38267;BME280;24063;51.794;19.578;2022-08-21T00:31:01;98129.60;;;18.56;100.00
38267;BME280;24063;51.794;19.578;2022-08-21T00:32:05;98130.86;;;18.56;100.00
38267;BME280;24063;51.794;19.578;2022-08-21T00:33:09;98124.58;;;18.56;100.00
38267;BME280;24063;51.794;19.578;2022-08-21T00:34:12;98123.55;;;18.55;100.00
38267;BME280;24063;51.794;19.578;2022-08-21T00:35:17;98116.11;;;18.55;100.00
38267;BME280;24063;51.794;19.578;2022-08-21T00:36:19;98115.70;;;18.54;100.00
38267;BME280;24063;51.794;19.578;2022-08-21T00:37:21;98114.45;;;18.54;100.00
38267;BME280;24063;51.794;19.578;2022-08-21T00:38:23;98113.80;;;18.54;100.00
38267;BME280;24063;51.794;19.578;2022-08-21T00:39:25;98111.14;;;18.54;100.00
38267;BME280;24063;51.794;19.578;2022-08-21T00:40:32;98113.39;;;18.53;100.00
38267;BME280;24063;51.794;19.578;2022-08-21T00:41:37;98109.83;;;18.52;100.00
38267;BME280;24063;51.794;19.578;2022-08-21T00:42:40;98108.50;;;18.52;100.00
38267;BME280;24063;51.794;19.578;2022-08-21T00:43:42;98106.45;;;18.52;100.00
38267;BME280;24063;51.794;19.578;2022-08-21T00:44:47;98104.11;;;18.52;100.00
38267;BME280;24063;51.794;19.578;2022-08-21T00:45:49;98102.30;;;18.51;100.00
38267;BME280;24063;51.794;19.578;2022-08-21T00:46:51;98099.96;;;18.51;100.00
38267;BME280;24063;51.794;19.578;2022-08-21T00:47:55;98101.51;;;18.51;100.00
38267;BME280;24063;51.794;19.578;2022-08-21T00:48:57;98094.69;;;18.50;100.00
38267;BME280;24063;51.794;19.578;2022-08-21T00:49:59;98095.84;;;18.50;100.00
38267;BME280;24063;51.794;19.578;2022-08-21T00:51:07;98097.27;;;18.50;100.00
38267;BME280;24063;51.794;19.578;2022-08-21T00:52:15;98097.33;;;18.50;100.00
38267;BME280;24063;51.794;19.578;2022-08-21T00:53:18;98095.54;;;18.50;100.00
38267;BME280;24063;51.794;19.578;2022-08-21T00:54:23;98098.67;;;18.50;100.00
38267;BME280;24063;51.794;19.578;2022-08-21T00:55:28;98098.63;;;18.51;100.00
38267;BME280;24063;51.794;19.578;2022-08-21T00:56:33;98098.24;;;18.52;100.00
38267;BME280;24063;51.794;19.578;2022-08-21T00:57:44;98095.22;;;18.52;100.00
38267;BME280;24063;51.794;19.578;2022-08-21T00:58:52;98096.15;;;18.52;100.00
38267;BME280;24063;51.794;19.578;2022-08-21T01:00:00;98097.17;;;18.52;100.00
38267;BME280;24063;51.794;19.578;2022-08-21T01:01:04;98097.98;;;18.53;100.00
38267;BME280;24063;51.794;19.578;2022-08-21T01:02:09;98096.95;;;18.53;100.00
38267;BME280;24063;51.794;19.578;2022-08-21T01:03:16;98096.40;;;18.52;100.00
38267;BME280;24063;51.794;19.578;2022-08-21T01:04:19;98092.85;;;18.52;100.00
38267;BME280;24063;51.794;19.578;2022-08-21T01:05:21;98089.58;;;18.52;100.00
38267;BME280;24063;51.794;19.578;2022-08-21T01:06:23;98089.41;;;18.52;100.00
38267;BME280;24063;51.794;19.578;2022-08-21T01:07:25;98089.17;;;18.51;100.00
38267;BME280;24063;51.794;19.578;2022-08-21T01:08:28;98087.51;;;18.51;100.00
38267;BME280;24063;51.794;19.578;2022-08-21T01:09:31;98087.92;;;18.51;100.00
38267;BME280;24063;51.794;19.578;2022-08-21T01:10:33;98086.05;;;18.51;100.00
38267;BME280;24063;51.794;19.578;2022-08-21T01:11:39;98086.12;;;18.51;100.00
38267;BME280;24063;51.794;19.578;2022-08-21T01:12:43;98089.64;;;18.51;100.00
38267;BME280;24063;51.794;19.578;2022-08-21T01:13:45;98090.59;;;18.52;100.00
38267;BME280;24063;51.794;19.578;2022-08-21T01:14:48;98089.73;;;18.52;100.00
38267;BME280;24063;51.794;19.578;2022-08-21T01:15:53;98089.92;;;18.53;100.00
38267;BME280;24063;51.794;19.578;2022-08-21T01:16:57;98086.18;;;18.53;100.00
38267;BME280;24063;51.794;19.578;2022-08-21T01:18:02;98090.55;;;18.53;100.00
38267;BME280;24063;51.794;19.578;2022-08-21T01:19:07;98086.05;;;18.54;100.00
38267;BME280;24063;51.794;19.578;2022-08-21T01:20:11;98085.41;;;18.54;100.00
38267;BME280;24063;51.794;19.578;2022-08-21T01:21:17;98083.95;;;18.54;100.00
38267;BME280;24063;51.794;19.578;2022-08-21T01:22:19;98084.11;;;18.55;100.00
38267;BME280;24063;51.794;19.578;2022-08-21T01:23:21;98084.61;;;18.55;100.00
38267;BME280;24063;51.794;19.578;2022-08-21T01:24:24;98084.48;;;18.56;100.00
38267;BME280;24063;51.794;19.578;2022-08-21T01:25:26;98083.77;;;18.56;100.00
38267;BME280;24063;51.794;19.578;2022-08-21T01:26:30;98083.70;;;18.56;100.00
38267;BME280;24063;51.794;19.578;2022-08-21T01:27:35;98082.77;;;18.56;100.00
38267;BME280;24063;51.794;19.578;2022-08-21T01:29:14;98084.27;;;18.57;100.00
38267;BME280;24063;51.794;19.578;2022-08-21T01:30:22;98082.67;;;18.58;100.00
38267;BME280;24063;51.794;19.578;2022-08-21T01:31:26;98087.90;;;18.58;100.00
38267;BME280;24063;51.794;19.578;2022-08-21T01:32:29;98085.48;;;18.58;100.00
38267;BME280;24063;51.794;19.578;2022-08-21T01:33:31;98089.24;;;18.58;100.00
38267;BME280;24063;51.794;19.578;2022-08-21T01:34:37;98086.96;;;18.58;100.00
38267;BME280;24063;51.794;19.578;2022-08-21T01:35:39;98084.33;;;18.58;100.00
38267;BME280;24063;51.794;19.578;2022-08-21T01:36:42;98084.40;;;18.58;100.00
38267;BME280;24063;51.794;19.578;2022-08-21T01:37:46;98082.84;;;18.58;100.00
38267;BME280;24063;51.794;19.578;2022-08-21T01:38:48;98085.83;;;18.59;100.00
38267;BME280;24063;51.794;19.578;2022-08-21T01:39:50;98082.44;;;18.58;100.00
38267;BME280;24063;51.794;19.578;2022-08-21T01:40:52;98079.59;;;18.57;100.00
38267;BME280;24063;51.794;19.578;2022-08-21T01:41:58;98079.27;;;18.57;100.00
38267;BME280;24063;51.794;19.578;2022-08-21T01:42:59;98079.89;;;18.57;100.00
38267;BME280;24063;51.794;19.578;2022-08-21T01:44:01;98075.91;;;18.57;100.00
38267;BME280;24063;51.794;19.578;2022-08-21T01:45:06;98071.83;;;18.57;100.00
38267;BME280;24063;51.794;19.578;2022-08-21T01:46:09;98068.72;;;18.57;100.00
38267;BME280;24063;51.794;19.578;2022-08-21T01:47:13;98064.73;;;18.57;100.00
38267;BME280;24063;51.794;19.578;2022-08-21T01:48:15;98065.43;;;18.57;100.00
38267;BME280;24063;51.794;19.578;2022-08-21T01:49:17;98061.46;;;18.58;100.00
38267;BME280;24063;51.794;19.578;2022-08-21T01:50:20;98060.94;;;18.58;100.00
38267;BME280;24063;51.794;19.578;2022-08-21T01:51:22;98059.42;;;18.60;100.00
38267;BME280;24063;51.794;19.578;2022-08-21T01:52:24;98059.22;;;18.59;100.00
38267;BME280;24063;51.794;19.578;2022-08-21T01:53:26;98056.24;;;18.58;100.00
38267;BME280;24063;51.794;19.578;2022-08-21T01:54:34;98058.50;;;18.58;100.00
38267;BME280;24063;51.794;19.578;2022-08-21T01:55:35;98060.31;;;18.58;100.00
38267;BME280;24063;51.794;19.578;2022-08-21T01:56:43;98058.44;;;18.58;100.00
38267;BME280;24063;51.794;19.578;2022-08-21T01:57:46;98057.20;;;18.59;100.00
38267;BME280;24063;51.794;19.578;2022-08-21T01:58:48;98057.09;;;18.60;100.00
38267;BME280;24063;51.794;19.578;2022-08-21T01:59:50;98057.20;;;18.61;100.00
38267;BME280;24063;51.794;19.578;2022-08-21T02:00:52;98056.48;;;18.63;100.00
38267;BME280;24063;51.794;19.578;2022-08-21T02:01:54;98056.38;;;18.64;100.00
38267;BME280;24063;51.794;19.578;2022-08-21T02:02:57;98058.64;;;18.65;100.00
38267;BME280;24063;51.794;19.578;2022-08-21T02:03:59;98057.84;;;18.66;100.00
38267;BME280;24063;51.794;19.578;2022-08-21T02:05:01;98057.02;;;18.68;100.00
38267;BME280;24063;51.794;19.578;2022-08-21T02:06:03;98060.51;;;18.69;100.00
38267;BME280;24063;51.794;19.578;2022-08-21T02:07:05;98055.85;;;18.71;100.00
38267;BME280;24063;51.794;19.578;2022-08-21T02:08:10;98058.27;;;18.72;100.00
38267;BME280;24063;51.794;19.578;2022-08-21T02:09:13;98056.16;;;18.73;100.00
38267;BME280;24063;51.794;19.578;2022-08-21T02:10:24;98058.70;;;18.74;100.00
38267;BME280;24063;51.794;19.578;2022-08-21T02:11:27;98058.44;;;18.76;100.00
38267;BME280;24063;51.794;19.578;2022-08-21T02:12:29;98058.38;;;18.76;100.00
38267;BME280;24063;51.794;19.578;2022-08-21T02:13:31;98058.65;;;18.77;100.00
38267;BME280;24063;51.794;19.578;2022-08-21T02:14:32;98057.59;;;18.79;100.00
38267;BME280;24063;51.794;19.578;2022-08-21T02:15:34;98055.42;;;18.79;100.00
38267;BME280;24063;51.794;19.578;2022-08-21T02:16:36;98053.74;;;18.80;100.00
38267;BME280;24063;51.794;19.578;2022-08-21T02:17:50;98053.09;;;18.81;100.00
38267;BME280;24063;51.794;19.578;2022-08-21T02:18:52;98053.40;;;18.83;100.00
38267;BME280;24063;51.794;19.578;2022-08-21T02:19:53;98053.52;;;18.84;100.00
38267;BME280;24063;51.794;19.578;2022-08-21T02:20:55;98049.14;;;18.84;100.00
38267;BME280;24063;51.794;19.578;2022-08-21T02:21:57;98049.05;;;18.85;100.00
38267;BME280;24063;51.794;19.578;2022-08-21T02:22:59;98048.94;;;18.85;100.00
38267;BME280;24063;51.794;19.578;2022-08-21T02:24:02;98050.45;;;18.87;100.00
38267;BME280;24063;51.794;19.578;2022-08-21T02:25:04;98051.41;;;18.88;100.00
38267;BME280;24063;51.794;19.578;2022-08-21T02:26:08;98049.26;;;18.89;100.00
38267;BME280;24063;51.794;19.578;2022-08-21T02:27:10;98047.54;;;18.91;100.00
38267;BME280;24063;51.794;19.578;2022-08-21T02:28:14;98045.53;;;18.92;100.00
38267;BME280;24063;51.794;19.578;2022-08-21T02:29:16;98040.69;;;18.95;100.00
38267;BME280;24063;51.794;19.578;2022-08-21T02:30:25;98038.69;;;18.99;100.00
38267;BME280;24063;51.794;19.578;2022-08-21T02:31:27;98038.31;;;19.02;100.00
38267;BME280;24063;51.794;19.578;2022-08-21T02:32:29;98033.91;;;19.04;100.00
38267;BME280;24063;51.794;19.578;2022-08-21T02:33:31;98034.55;;;19.04;100.00
38267;BME280;24063;51.794;19.578;2022-08-21T02:34:32;98035.08;;;19.06;100.00
38267;BME280;24063;51.794;19.578;2022-08-21T02:35:35;98034.44;;;19.08;100.00
38267;BME280;24063;51.794;19.578;2022-08-21T02:36:37;98036.95;;;19.11;100.00
38267;BME280;24063;51.794;19.578;2022-08-21T02:37:48;98039.12;;;19.13;100.00
38267;BME280;24063;51.794;19.578;2022-08-21T02:38:51;98041.22;;;19.15;100.00
38267;BME280;24063;51.794;19.578;2022-08-21T02:39:52;98039.14;;;19.16;100.00
38267;BME280;24063;51.794;19.578;2022-08-21T02:40:55;98035.86;;;19.16;100.00
38267;BME280;24063;51.794;19.578;2022-08-21T02:41:57;98035.17;;;19.17;100.00
38267;BME280;24063;51.794;19.578;2022-08-21T02:43:03;98036.52;;;19.17;100.00
38267;BME280;24063;51.794;19.578;2022-08-21T02:44:05;98038.23;;;19.18;100.00
38267;BME280;24063;51.794;19.578;2022-08-21T02:45:07;98036.83;;;19.18;100.00
38267;BME280;24063;51.794;19.578;2022-08-21T02:46:11;98035.98;;;19.17;100.00
38267;BME280;24063;51.794;19.578;2022-08-21T02:47:14;98037.04;;;19.17;100.00
38267;BME280;24063;51.794;19.578;2022-08-21T02:48:20;98037.02;;;19.16;100.00
38267;BME280;24063;51.794;19.578;2022-08-21T02:49:22;98040.54;;;19.16;100.00
38267;BME280;24063;51.794;19.578;2022-08-21T02:50:29;98040.16;;;19.14;100.00
38267;BME280;24063;51.794;19.578;2022-08-21T02:51:31;98039.52;;;19.14;100.00
38267;BME280;24063;51.794;19.578;2022-08-21T02:52:33;98038.67;;;19.14;100.00
38267;BME280;24063;51.794;19.578;2022-08-21T02:53:36;98040.30;;;19.14;100.00
38267;BME280;24063;51.794;19.578;2022-08-21T02:54:38;98038.52;;;19.14;100.00
38267;BME280;24063;51.794;19.578;2022-08-21T02:55:39;98041.91;;;19.15;100.00
38267;BME280;24063;51.794;19.578;2022-08-21T02:56:41;98038.37;;;19.14;100.00
38267;BME280;24063;51.794;19.578;2022-08-21T02:57:43;98040.33;;;19.14;100.00
38267;BME280;24063;51.794;19.578;2022-08-21T02:58:51;98038.43;;;19.14;100.00
38267;BME280;24063;51.794;19.578;2022-08-21T02:59:54;98035.98;;;19.12;100.00
38267;BME280;24063;51.794;19.578;2022-08-21T03:00:56;98040.00;;;19.16;100.00
38267;BME280;24063;51.794;19.578;2022-08-21T03:01:59;98035.12;;;19.18;100.00
38267;BME280;24063;51.794;19.578;2022-08-21T03:03:01;98037.61;;;19.20;100.00
38267;BME280;24063;51.794;19.578;2022-08-21T03:04:03;98029.03;;;19.21;100.00
38267;BME280;24063;51.794;19.578;2022-08-21T03:05:08;98028.61;;;19.23;100.00
38267;BME280;24063;51.794;19.578;2022-08-21T03:06:12;98028.50;;;19.24;100.00
38267;BME280;24063;51.794;19.578;2022-08-21T03:07:14;98026.27;;;19.26;100.00
38267;BME280;24063;51.794;19.578;2022-08-21T03:08:17;98026.52;;;19.27;100.00
38267;BME280;24063;51.794;19.578;2022-08-21T03:09:21;98024.05;;;19.28;100.00
38267;BME280;24063;51.794;19.578;2022-08-21T03:10:22;98022.61;;;19.29;100.00
38267;BME280;24063;51.794;19.578;2022-08-21T03:11:24;98022.94;;;19.30;100.00
38267;BME280;24063;51.794;19.578;2022-08-21T03:12:27;98029.77;;;19.31;100.00
38267;BME280;24063;51.794;19.578;2022-08-21T03:13:30;98025.05;;;19.33;100.00
38267;BME280;24063;51.794;19.578;2022-08-21T03:14:33;98026.80;;;19.33;100.00
38267;BME280;24063;51.794;19.578;2022-08-21T03:15:35;98031.40;;;19.35;100.00
38267;BME280;24063;51.794;19.578;2022-08-21T03:16:38;98027.70;;;19.37;100.00
38267;BME280;24063;51.794;19.578;2022-08-21T03:17:40;98032.11;;;19.38;100.00
38267;BME280;24063;51.794;19.578;2022-08-21T03:18:42;98030.08;;;19.41;100.00
38267;BME280;24063;51.794;19.578;2022-08-21T03:19:43;98031.27;;;19.41;100.00
38267;BME280;24063;51.794;19.578;2022-08-21T03:20:46;98030.63;;;19.43;100.00
38267;BME280;24063;51.794;19.578;2022-08-21T03:21:48;98031.66;;;19.44;100.00
38267;BME280;24063;51.794;19.578;2022-08-21T03:22:52;98036.16;;;19.46;100.00
38267;BME280;24063;51.794;19.578;2022-08-21T03:23:54;98033.77;;;19.48;100.00
38267;BME280;24063;51.794;19.578;2022-08-21T03:24:56;98033.20;;;19.49;100.00
38267;BME280;24063;51.794;19.578;2022-08-21T03:25:58;98035.52;;;19.50;100.00
38267;BME280;24063;51.794;19.578;2022-08-21T03:27:00;98034.55;;;19.52;100.00
38267;BME280;24063;51.794;19.578;2022-08-21T03:28:05;98034.00;;;19.53;100.00
38267;BME280;24063;51.794;19.578;2022-08-21T03:29:08;98034.48;;;19.53;100.00
38267;BME280;24063;51.794;19.578;2022-08-21T03:30:11;98033.42;;;19.54;100.00
38267;BME280;24063;51.794;19.578;2022-08-21T03:31:13;98036.48;;;19.54;100.00
38267;BME280;24063;51.794;19.578;2022-08-21T03:32:14;98033.41;;;19.54;100.00
38267;BME280;24063;51.794;19.578;2022-08-21T03:33:17;98033.54;;;19.52;100.00
38267;BME280;24063;51.794;19.578;2022-08-21T03:34:21;98037.20;;;19.52;100.00
38267;BME280;24063;51.794;19.578;2022-08-21T03:35:23;98038.43;;;19.51;100.00
38267;BME280;24063;51.794;19.578;2022-08-21T03:36:24;98038.96;;;19.51;100.00
38267;BME280;24063;51.794;19.578;2022-08-21T03:37:28;98038.44;;;19.52;100.00
38267;BME280;24063;51.794;19.578;2022-08-21T03:38:32;98039.96;;;19.53;100.00
38267;BME280;24063;51.794;19.578;2022-08-21T03:39:34;98041.22;;;19.55;100.00
38267;BME280;24063;51.794;19.578;2022-08-21T03:40:36;98041.41;;;19.59;100.00
38267;BME280;24063;51.794;19.578;2022-08-21T03:41:38;98043.14;;;19.62;100.00
38267;BME280;24063;51.794;19.578;2022-08-21T03:42:40;98042.84;;;19.63;100.00
38267;BME280;24063;51.794;19.578;2022-08-21T03:43:42;98041.19;;;19.63;100.00
38267;BME280;24063;51.794;19.578;2022-08-21T03:44:43;98042.52;;;19.63;100.00
38267;BME280;24063;51.794;19.578;2022-08-21T03:45:45;98045.58;;;19.63;100.00
38267;BME280;24063;51.794;19.578;2022-08-21T03:46:47;98042.02;;;19.64;100.00
38267;BME280;24063;51.794;19.578;2022-08-21T03:47:55;98044.98;;;19.64;100.00
38267;BME280;24063;51.794;19.578;2022-08-21T03:48:57;98041.38;;;19.64;100.00
38267;BME280;24063;51.794;19.578;2022-08-21T03:50:00;98043.43;;;19.65;100.00
38267;BME280;24063;51.794;19.578;2022-08-21T03:51:02;98041.70;;;19.64;100.00
38267;BME280;24063;51.794;19.578;2022-08-21T03:52:04;98040.90;;;19.63;100.00
38267;BME280;24063;51.794;19.578;2022-08-21T03:53:07;98041.13;;;19.63;100.00
38267;BME280;24063;51.794;19.578;2022-08-21T03:54:18;98039.86;;;19.63;100.00
38267;BME280;24063;51.794;19.578;2022-08-21T03:55:20;98041.16;;;19.62;100.00
38267;BME280;24063;51.794;19.578;2022-08-21T03:56:22;98040.13;;;19.61;100.00
38267;BME280;24063;51.794;19.578;2022-08-21T03:57:24;98038.56;;;19.61;100.00
38267;BME280;24063;51.794;19.578;2022-08-21T03:58:27;98035.45;;;19.62;100.00
38267;BME280;24063;51.794;19.578;2022-08-21T03:59:29;98036.73;;;19.63;100.00
38267;BME280;24063;51.794;19.578;2022-08-21T04:00:31;98035.34;;;19.64;100.00
38267;BME280;24063;51.794;19.578;2022-08-21T04:01:34;98036.50;;;19.64;100.00
38267;BME280;24063;51.794;19.578;2022-08-21T04:02:38;98036.40;;;19.62;100.00
38267;BME280;24063;51.794;19.578;2022-08-21T04:03:40;98036.33;;;19.63;100.00
38267;BME280;24063;51.794;19.578;2022-08-21T04:04:42;98036.63;;;19.62;100.00
38267;BME280;24063;51.794;19.578;2022-08-21T04:05:44;98035.44;;;19.62;100.00
38267;BME280;24063;51.794;19.578;2022-08-21T04:06:47;98039.19;;;19.61;100.00
38267;BME280;24063;51.794;19.578;2022-08-21T04:07:48;98039.45;;;19.60;100.00
38267;BME280;24063;51.794;19.578;2022-08-21T04:08:50;98038.34;;;19.59;100.00
38267;BME280;24063;51.794;19.578;2022-08-21T04:09:52;98040.89;;;19.61;100.00
38267;BME280;24063;51.794;19.578;2022-08-21T04:10:57;98042.30;;;19.63;100.00
38267;BME280;24063;51.794;19.578;2022-08-21T04:11:59;98039.13;;;19.65;99.97
38267;BME280;24063;51.794;19.578;2022-08-21T04:13:03;98041.54;;;19.64;99.95
38267;BME280;24063;51.794;19.578;2022-08-21T04:14:05;98042.73;;;19.64;99.77
38267;BME280;24063;51.794;19.578;2022-08-21T04:15:07;98038.95;;;19.64;99.70
38267;BME280;24063;51.794;19.578;2022-08-21T04:16:09;98039.05;;;19.65;99.76
38267;BME280;24063;51.794;19.578;2022-08-21T04:17:11;98037.27;;;19.66;99.88
38267;BME280;24063;51.794;19.578;2022-08-21T04:18:12;98039.92;;;19.69;99.65
38267;BME280;24063;51.794;19.578;2022-08-21T04:19:14;98036.16;;;19.69;99.14
38267;BME280;24063;51.794;19.578;2022-08-21T04:20:17;98039.45;;;19.68;98.99
38267;BME280;24063;51.794;19.578;2022-08-21T04:21:19;98041.80;;;19.68;98.87
38267;BME280;24063;51.794;19.578;2022-08-21T04:22:24;98039.42;;;19.67;98.91
38267;BME280;24063;51.794;19.578;2022-08-21T04:23:27;98036.77;;;19.68;98.63
38267;BME280;24063;51.794;19.578;2022-08-21T04:24:28;98038.67;;;19.69;98.53
38267;BME280;24063;51.794;19.578;2022-08-21T04:25:31;98036.09;;;19.69;98.34
38267;BME280;24063;51.794;19.578;2022-08-21T04:26:34;98035.11;;;19.70;98.26
38267;BME280;24063;51.794;19.578;2022-08-21T04:27:36;98035.06;;;19.71;97.71
38267;BME280;24063;51.794;19.578;2022-08-21T04:28:38;98034.66;;;19.71;97.85
38267;BME280;24063;51.794;19.578;2022-08-21T04:29:39;98033.59;;;19.72;98.15
38267;BME280;24063;51.794;19.578;2022-08-21T04:30:41;98036.20;;;19.72;97.53
38267;BME280;24063;51.794;19.578;2022-08-21T04:31:43;98032.23;;;19.73;97.70
38267;BME280;24063;51.794;19.578;2022-08-21T04:32:49;98036.94;;;19.73;97.47
38267;BME280;24063;51.794;19.578;2022-08-21T04:33:51;98035.77;;;19.73;97.64
38267;BME280;24063;51.794;19.578;2022-08-21T04:35:02;98036.06;;;19.73;97.23
38267;BME280;24063;51.794;19.578;2022-08-21T04:36:05;98033.56;;;19.75;97.29
38267;BME280;24063;51.794;19.578;2022-08-21T04:37:08;98033.21;;;19.77;96.92
38267;BME280;24063;51.794;19.578;2022-08-21T04:38:10;98034.90;;;19.78;96.81
38267;BME280;24063;51.794;19.578;2022-08-21T04:39:12;98031.23;;;19.79;96.53
38267;BME280;24063;51.794;19.578;2022-08-21T04:40:15;98034.23;;;19.79;96.22
38267;BME280;24063;51.794;19.578;2022-08-21T04:41:17;98032.53;;;19.80;95.88
38267;BME280;24063;51.794;19.578;2022-08-21T04:42:29;98037.59;;;19.82;95.41
38267;BME280;24063;51.794;19.578;2022-08-21T04:43:31;98036.77;;;19.84;95.41
38267;BME280;24063;51.794;19.578;2022-08-21T04:44:33;98041.45;;;19.86;95.41
38267;BME280;24063;51.794;19.578;2022-08-21T04:45:41;98038.73;;;19.87;95.03
38267;BME280;24063;51.794;19.578;2022-08-21T04:46:42;98039.10;;;19.89;94.14
38267;BME280;24063;51.794;19.578;2022-08-21T04:47:44;98039.69;;;19.90;94.07
38267;BME280;24063;51.794;19.578;2022-08-21T04:48:53;98042.95;;;19.92;93.89
38267;BME280;24063;51.794;19.578;2022-08-21T04:49:55;98045.60;;;19.94;94.07
38267;BME280;24063;51.794;19.578;2022-08-21T04:51:19;98043.66;;;19.95;94.05
38267;BME280;24063;51.794;19.578;2022-08-21T04:52:24;98044.67;;;19.98;93.94
38267;BME280;24063;51.794;19.578;2022-08-21T04:53:55;98046.08;;;20.00;93.38
38267;BME280;24063;51.794;19.578;2022-08-21T04:54:58;98047.50;;;20.04;93.17
38267;BME280;24063;51.794;19.578;2022-08-21T04:56:06;98050.69;;;20.06;93.08
38267;BME280;24063;51.794;19.578;2022-08-21T04:57:09;98048.77;;;20.07;93.19
38267;BME280;24063;51.794;19.578;2022-08-21T04:58:17;98042.33;;;20.10;93.20
38267;BME280;24063;51.794;19.578;2022-08-21T04:59:39;98043.92;;;20.14;93.04
38267;BME280;24063;51.794;19.578;2022-08-21T05:00:42;98041.66;;;20.17;92.70
38267;BME280;24063;51.794;19.578;2022-08-21T05:01:45;98044.02;;;20.18;92.37
38267;BME280;24063;51.794;19.578;2022-08-21T05:02:49;98040.39;;;20.20;92.27
38267;BME280;24063;51.794;19.578;2022-08-21T05:03:56;98041.20;;;20.21;92.14
38267;BME280;24063;51.794;19.578;2022-08-21T05:05:00;98040.26;;;20.24;91.96
38267;BME280;24063;51.794;19.578;2022-08-21T05:06:05;98041.89;;;20.26;91.50
38267;BME280;24063;51.794;19.578;2022-08-21T05:07:14;98046.73;;;20.29;91.53
38267;BME280;24063;51.794;19.578;2022-08-21T05:08:38;98047.52;;;20.32;91.38
38267;BME280;24063;51.794;19.578;2022-08-21T05:09:41;98049.52;;;20.34;91.07
38267;BME280;24063;51.794;19.578;2022-08-21T05:10:43;98051.68;;;20.35;90.81
38267;BME280;24063;51.794;19.578;2022-08-21T05:11:46;98050.20;;;20.36;90.84
38267;BME280;24063;51.794;19.578;2022-08-21T05:12:49;98053.48;;;20.36;90.58
38267;BME280;24063;51.794;19.578;2022-08-21T05:13:50;98055.17;;;20.36;90.14
38267;BME280;24063;51.794;19.578;2022-08-21T05:14:57;98057.19;;;20.39;90.23
38267;BME280;24063;51.794;19.578;2022-08-21T05:15:59;98056.95;;;20.42;90.14
38267;BME280;24063;51.794;19.578;2022-08-21T05:17:01;98059.96;;;20.44;89.94
38267;BME280;24063;51.794;19.578;2022-08-21T05:18:03;98058.81;;;20.45;89.41
38267;BME280;24063;51.794;19.578;2022-08-21T05:19:05;98058.39;;;20.47;89.25
38267;BME280;24063;51.794;19.578;2022-08-21T05:20:12;98064.05;;;20.50;89.25
38267;BME280;24063;51.794;19.578;2022-08-21T05:21:14;98062.51;;;20.51;88.71
38267;BME280;24063;51.794;19.578;2022-08-21T05:22:22;98063.46;;;20.52;88.78
38267;BME280;24063;51.794;19.578;2022-08-21T05:23:25;98061.91;;;20.53;88.83
38267;BME280;24063;51.794;19.578;2022-08-21T05:24:28;98065.82;;;20.52;88.86
38267;BME280;24063;51.794;19.578;2022-08-21T05:25:29;98066.73;;;20.54;89.02
38267;BME280;24063;51.794;19.578;2022-08-21T05:26:31;98068.04;;;20.56;88.77
38267;BME280;24063;51.794;19.578;2022-08-21T05:27:33;98067.39;;;20.59;88.45
38267;BME280;24063;51.794;19.578;2022-08-21T05:28:35;98071.29;;;20.61;87.73
38267;BME280;24063;51.794;19.578;2022-08-21T05:29:37;98072.30;;;20.63;87.54